Time;durP1;ratioP1;P1;durP2;ratioP2;P2;SDS_P1;SDS_P2;PMS_P1;PMS_P2;Temp;Humidity;BMP_temperature;BMP_pressure;BME280_temperature;BME280_humidity;BME280_pressure;Samples;Min_cycle;Max_cycle;Signal;HPM_P1;HPM_P2
2022/04/09 00:01:48;;;;;;;18.25;9.40;;;;;;;9.67;86.01;150086.00;1773081;79;21034;-61
2022/04/09 00:04:15;;;;;;;23.07;9.45;;;;;;;9.67;86.35;150086.00;1779830;80;22204;-59
2022/04/09 00:06:42;;;;;;;27.62;8.03;;;;;;;9.71;86.44;150096.36;1781113;79;21523;-59
2022/04/09 00:09:10;;;;;;;14.90;6.95;;;;;;;9.78;86.38;150111.91;1780639;80;21051;-60
2022/04/09 00:11:38;;;;;;;17.02;6.55;;;;;;;9.86;86.40;150132.70;1781177;79;21083;-60
2022/04/09 00:14:06;;;;;;;18.02;6.67;;;;;;;9.94;86.14;150153.44;1779938;80;21035;-60
2022/04/09 00:16:34;;;;;;;24.75;7.15;;;;;;;10.03;85.80;150176.75;1778997;80;21226;-61
2022/04/09 00:19:02;;;;;;;20.70;7.15;;;;;;;10.12;85.52;150197.55;1775900;80;21656;-61
2022/04/09 00:21:29;;;;;;;17.20;6.70;;;;;;;10.21;85.10;150220.88;1778989;79;21031;-59
2022/04/09 00:23:58;;;;;;;25.90;6.87;;;;;;;10.29;84.75;150240.34;1781369;80;21701;-61
2022/04/09 00:26:25;;;;;;;23.02;8.03;;;;;;;10.36;84.31;150258.50;1778008;80;20945;-61
2022/04/09 00:28:53;;;;;;;20.50;8.38;;;;;;;10.43;83.95;150275.42;1780280;79;21527;-60
2022/04/09 00:31:21;;;;;;;21.80;9.03;;;;;;;10.50;83.61;150292.30;1774877;80;20984;-61
2022/04/09 00:33:49;;;;;;;25.72;10.03;;;;;;;10.53;83.39;150301.39;1757545;80;21037;-61
2022/04/09 00:36:17;;;;;;;19.30;10.85;;;;;;;10.54;83.38;150303.98;1779627;80;20992;-60
2022/04/09 00:38:44;;;;;;;24.72;9.80;;;;;;;10.53;83.44;150300.08;1776036;79;21030;-60
2022/04/09 00:41:12;;;;;;;18.62;9.63;;;;;;;10.51;83.62;150296.20;1777483;80;21183;-60
2022/04/09 00:43:43;;;;;;;26.10;7.72;;;;;;;10.49;83.70;150290.97;1776878;79;20932;-60
2022/04/09 00:46:13;;;;;;;18.98;8.10;;;;;;;10.47;83.61;150285.78;1777313;80;21066;-60
2022/04/09 00:48:43;;;;;;;26.27;9.70;;;;;;;10.49;83.71;150290.97;1780362;80;21067;-60
2022/04/09 00:51:11;;;;;;;26.40;10.10;;;;;;;10.51;83.76;150296.20;1777923;80;21409;-60
2022/04/09 00:53:42;;;;;;;29.77;9.60;;;;;;;10.52;83.73;150298.80;1779504;80;21129;-60
2022/04/09 00:56:15;;;;;;;28.42;9.78;;;;;;;10.50;83.77;150293.61;1779134;79;21057;-60
2022/04/09 00:58:57;;;;;;;18.15;8.98;;;;;;;10.48;83.87;150288.38;1776224;79;21038;-60
2022/04/09 01:01:27;;;;;;;27.48;9.48;;;;;;;10.48;84.03;150287.11;1772415;79;21688;-60
2022/04/09 01:03:55;;;;;;;21.77;9.20;;;;;;;10.46;84.09;150284.52;1778883;80;21133;-60
2022/04/09 01:06:23;;;;;;;19.60;9.35;;;;;;;10.43;84.07;150276.73;1783470;80;21222;-59
2022/04/09 01:08:50;;;;;;;23.70;9.73;;;;;;;10.43;84.21;150276.73;1776915;80;21051;-59
2022/04/09 01:11:18;;;;;;;29.10;9.98;;;;;;;10.42;84.26;150272.83;1777202;80;21823;-59
2022/04/09 01:13:48;;;;;;;22.73;10.35;;;;;;;10.39;84.35;150265.00;1775547;79;21030;-59
2022/04/09 01:16:15;;;;;;;24.15;10.05;;;;;;;10.35;84.50;150254.63;1769572;80;21085;-59
2022/04/09 01:18:43;;;;;;;19.45;8.93;;;;;;;10.32;84.64;150249.44;1776873;80;21268;-59
2022/04/09 01:21:12;;;;;;;21.40;9.83;;;;;;;10.30;84.90;150242.94;1757461;80;21016;-59
2022/04/09 01:23:41;;;;;;;19.98;9.45;;;;;;;10.26;85.07;150233.84;1757457;79;21006;-61
2022/04/09 01:26:10;;;;;;;23.83;9.03;;;;;;;10.25;85.11;150231.25;1778622;80;21038;-60
2022/04/09 01:28:41;;;;;;;27.98;9.63;;;;;;;10.24;85.28;150227.38;1779160;80;22067;-60
2022/04/09 01:31:08;;;;;;;22.60;8.78;;;;;;;10.23;85.39;150226.06;1777031;80;21272;-60
2022/04/09 01:33:36;;;;;;;19.23;9.83;;;;;;;10.21;85.50;150220.88;1780280;80;21014;-60
2022/04/09 01:36:04;;;;;;;21.75;9.13;;;;;;;10.18;85.62;150213.09;1783932;79;21085;-60
2022/04/09 01:38:34;;;;;;;25.20;9.53;;;;;;;10.13;85.77;150201.41;1780749;80;21216;-60
2022/04/09 01:41:03;;;;;;;27.27;9.45;;;;;;;10.11;85.95;150196.22;1780620;79;21089;-60
2022/04/09 01:43:34;;;;;;;23.42;9.08;;;;;;;10.07;86.08;150185.86;1767948;79;21575;-60
2022/04/09 01:46:02;;;;;;;18.02;8.53;;;;;;;10.06;86.33;150181.94;1784573;80;21034;-60
2022/04/09 01:48:30;;;;;;;28.25;8.70;;;;;;;10.02;86.50;150174.17;1784858;79;20998;-58
2022/04/09 01:50:58;;;;;;;26.40;9.53;;;;;;;9.99;86.65;150166.39;1769715;80;21086;-59
2022/04/09 01:53:26;;;;;;;15.50;8.55;;;;;;;9.95;86.78;150154.75;1778254;80;20997;-59
2022/04/09 01:55:55;;;;;;;19.73;8.83;;;;;;;9.93;86.95;150150.84;1779871;79;21173;-59
2022/04/09 01:58:24;;;;;;;20.17;9.10;;;;;;;9.91;87.18;150144.34;1783740;80;20930;-59
2022/04/09 02:00:57;;;;;;;21.00;9.18;;;;;;;9.86;87.18;150133.97;1782973;80;21026;-59
2022/04/09 02:03:22;;;;;;;22.48;9.15;;;;;;;9.86;87.24;150132.70;1783259;80;20979;-59
2022/04/09 02:05:49;;;;;;;24.55;8.90;;;;;;;9.84;87.20;150127.52;1783517;80;21108;-60
2022/04/09 02:08:18;;;;;;;24.32;9.38;;;;;;;9.83;87.31;150124.87;1783933;80;20990;-61
2022/04/09 02:10:46;;;;;;;22.90;8.60;;;;;;;9.80;87.38;150117.09;1783415;80;20954;-59
2022/04/09 02:13:16;;;;;;;21.20;8.45;;;;;;;9.75;87.45;150106.73;1784348;80;20907;-60
2022/04/09 02:15:43;;;;;;;18.23;8.38;;;;;;;9.70;87.65;150093.78;1783712;80;21004;-59
2022/04/09 02:18:12;;;;;;;18.45;7.65;;;;;;;9.67;87.75;150086.00;1784182;80;21428;-59
2022/04/09 02:20:39;;;;;;;19.52;8.53;;;;;;;9.63;87.84;150075.64;1783501;80;21495;-60
2022/04/09 02:23:08;;;;;;;21.33;7.60;;;;;;;9.58;87.92;150062.62;1783790;80;20927;-59
2022/04/09 02:25:37;;;;;;;24.27;8.08;;;;;;;9.56;87.97;150057.45;1783360;80;21049;-60
2022/04/09 02:28:07;;;;;;;19.95;8.15;;;;;;;9.54;88.15;150052.27;1745502;80;21138;-59
2022/04/09 02:30:34;;;;;;;18.30;8.48;;;;;;;9.51;88.14;150045.81;1738526;81;21067;-59
2022/04/09 02:33:03;;;;;;;22.35;8.25;;;;;;;9.48;88.31;150038.00;1738488;81;22108;-60
2022/04/09 02:35:35;;;;;;;21.85;9.33;;;;;;;9.42;88.43;150023.77;1708428;81;21024;-60
2022/04/09 02:38:03;;;;;;;13.62;8.30;;;;;;;9.39;88.75;150014.67;1738779;82;21459;-59
2022/04/09 02:40:31;;;;;;;16.52;8.48;;;;;;;9.31;89.19;149996.53;1738512;82;20916;-60
2022/04/09 02:42:59;;;;;;;13.10;7.62;;;;;;;9.27;89.47;149984.86;1738680;80;21079;-59
2022/04/09 02:45:26;;;;;;;18.30;8.80;;;;;;;9.21;89.84;149969.31;1738380;82;21855;-60
2022/04/09 02:47:54;;;;;;;21.30;9.15;;;;;;;9.16;90.11;149957.63;1707010;80;21060;-60
2022/04/09 02:50:24;;;;;;;19.45;9.65;;;;;;;9.09;90.45;149940.77;1738052;82;21072;-60
2022/04/09 02:52:51;;;;;;;20.90;9.30;;;;;;;9.02;90.79;149922.64;1738293;80;21075;-60
2022/04/09 02:55:20;;;;;;;24.77;8.98;;;;;;;8.97;91.15;149909.69;1738713;82;21497;-60
2022/04/09 02:57:50;;;;;;;19.87;8.85;;;;;;;8.89;91.57;149890.23;1738568;82;21871;-59
2022/04/09 03:00:18;;;;;;;20.05;9.35;;;;;;;8.82;91.95;149872.06;1739040;80;20862;-60
2022/04/09 03:02:48;;;;;;;20.32;8.80;;;;;;;8.70;92.39;149842.25;1738657;80;21044;-59
2022/04/09 03:05:20;;;;;;;18.82;9.03;;;;;;;8.59;92.84;149816.36;1736925;82;21017;-60
2022/04/09 03:07:48;;;;;;;21.95;9.48;;;;;;;8.53;93.54;149800.83;1738464;80;21015;-60
2022/04/09 03:10:15;;;;;;;17.05;8.55;;;;;;;8.49;94.17;149790.38;1738969;81;21237;-60
2022/04/09 03:12:46;;;;;;;20.45;9.43;;;;;;;8.43;94.69;149774.84;1738306;80;20967;-60
2022/04/09 03:15:18;;;;;;;18.10;9.23;;;;;;;8.36;95.36;149757.98;1737964;82;20861;-60
2022/04/09 03:17:46;;;;;;;18.90;9.58;;;;;;;8.31;95.95;149745.05;1738868;82;21036;-60
2022/04/09 03:20:17;;;;;;;20.35;9.73;;;;;;;8.26;96.65;149733.38;1739377;82;21347;-59
2022/04/09 03:22:48;;;;;;;18.32;10.20;;;;;;;8.23;97.41;149724.34;1738211;81;21553;-60
2022/04/09 03:25:18;;;;;;;22.65;9.95;;;;;;;8.21;98.12;149720.42;1736178;80;20973;-60
2022/04/09 03:27:46;;;;;;;18.82;10.32;;;;;;;8.20;98.70;149716.56;1727748;80;21262;-60
2022/04/09 03:30:14;;;;;;;20.15;10.13;;;;;;;8.18;99.31;149712.66;1738443;80;21075;-60
2022/04/09 03:32:43;;;;;;;23.80;11.00;;;;;;;8.17;99.86;149710.08;1737888;80;21039;-61
2022/04/09 03:35:12;;;;;;;20.00;10.55;;;;;;;8.16;100.00;149707.48;1733287;82;21910;-59
2022/04/09 03:37:41;;;;;;;18.55;10.53;;;;;;;8.15;100.00;149704.89;1737658;80;21518;-60
2022/04/09 03:40:13;;;;;;;19.17;9.70;;;;;;;8.17;100.00;149710.08;1739035;81;21143;-59
2022/04/09 03:42:41;;;;;;;23.67;10.32;;;;;;;8.20;100.00;149717.84;1738489;82;21471;-59
2022/04/09 03:45:09;;;;;;;21.48;10.82;;;;;;;8.25;100.00;149730.78;1738984;82;21511;-59
2022/04/09 03:47:37;;;;;;;17.30;9.88;;;;;;;8.31;100.00;149746.38;1738257;81;21123;-61
2022/04/09 03:50:07;;;;;;;20.97;10.78;;;;;;;8.36;100.00;149756.72;1739689;80;21447;-60
2022/04/09 03:52:36;;;;;;;18.95;10.23;;;;;;;8.41;100.00;149769.66;1739206;82;21084;-60
2022/04/09 03:55:07;;;;;;;17.62;9.18;;;;;;;8.44;100.00;149778.75;1737477;81;21036;-59
2022/04/09 03:57:34;;;;;;;16.42;10.48;;;;;;;8.50;100.00;149791.75;1738819;81;21055;-59
2022/04/09 04:00:01;;;;;;;19.32;10.32;;;;;;;8.52;100.00;149796.92;1738055;82;21284;-59
2022/04/09 04:02:30;;;;;;;16.45;9.63;;;;;;;8.55;100.00;149806.00;1738487;82;21032;-60
2022/04/09 04:05:02;;;;;;;19.10;9.25;;;;;;;8.62;100.00;149821.55;1738420;80;21049;-59
2022/04/09 04:07:30;;;;;;;16.35;9.65;;;;;;;8.66;100.00;149831.91;1738781;82;20961;-60
2022/04/09 04:10:09;;;;;;;19.02;9.33;;;;;;;8.71;100.00;149844.84;1739577;81;21039;-60
2022/04/09 04:12:37;;;;;;;16.95;8.50;;;;;;;8.78;100.00;149863.03;1708879;82;21112;-60
2022/04/09 04:15:08;;;;;;;16.07;8.83;;;;;;;8.83;100.00;149875.97;1739677;80;21001;-60
2022/04/09 04:17:48;;;;;;;1384.63;197.50;;;;;;;8.88;100.00;149887.66;1707941;81;21633;-67
2022/04/09 04:20:17;;;;;;;538.08;118.72;;;;;;;8.93;100.00;149900.59;1739250;82;20956;-67
2022/04/09 04:22:47;;;;;;;353.40;126.20;;;;;;;9.01;100.00;149920.05;1738784;81;21000;-67
2022/04/09 04:25:15;;;;;;;318.95;111.32;;;;;;;9.09;100.00;149940.77;1739215;81;20922;-67
2022/04/09 04:27:45;;;;;;;407.08;201.67;;;;;;;9.15;100.00;149956.31;1737749;82;21150;-62
2022/04/09 04:30:13;;;;;;;140.77;57.65;;;;;;;9.20;100.00;149966.72;1739763;80;21038;-63
2022/04/09 04:32:42;;;;;;;129.55;55.48;;;;;;;9.24;100.00;149977.08;1777638;80;21097;-62
2022/04/09 04:35:10;;;;;;;189.87;99.97;;;;;;;9.29;100.00;149990.03;1778016;80;21089;-63
2022/04/09 04:37:44;;;;;;;377.57;196.18;;;;;;;9.33;100.00;150000.41;1778161;80;21021;-62
2022/04/09 04:40:15;;;;;;;664.70;368.05;;;;;;;9.43;100.00;150025.03;1702482;83;20987;-63
2022/04/09 04:42:45;;;;;;;285.88;138.88;;;;;;;9.53;100.00;150049.67;1771009;80;20963;-62
2022/04/09 04:45:13;;;;;;;71.50;37.05;;;;;;;9.61;100.00;150070.41;1752931;80;20914;-62
2022/04/09 04:47:47;;;;;;;58.60;25.77;;;;;;;9.70;100.00;150093.78;1773707;80;21266;-63
2022/04/09 04:50:18;;;;;;;49.88;24.50;;;;;;;9.80;100.00;150117.09;1779297;79;21273;-62
2022/04/09 04:52:47;;;;;;;43.15;20.30;;;;;;;9.88;100.00;150137.88;1756034;79;21065;-62
2022/04/09 04:55:16;;;;;;;52.88;24.80;;;;;;;9.98;99.85;150163.80;1756159;80;20998;-62
2022/04/09 04:57:52;;;;;;;39.88;17.12;;;;;;;10.11;99.27;150194.95;1772734;80;21466;-61
2022/04/09 05:00:23;;;;;;;25.95;13.78;;;;;;;10.24;98.77;150228.66;1779491;79;20927;-63
2022/04/09 05:02:54;;;;;;;77.25;40.15;;;;;;;10.40;97.97;150267.59;1749300;79;21043;-63
2022/04/09 05:05:23;;;;;;;45.92;20.25;;;;;;;10.53;97.16;150301.39;1767886;79;21026;-63
2022/04/09 05:07:52;;;;;;;29.12;11.68;;;;;;;10.66;96.46;150333.83;1777707;79;21121;-63
2022/04/09 05:10:23;;;;;;;26.35;13.30;;;;;;;10.79;95.75;150366.28;1778629;80;20978;-63
2022/04/09 05:12:54;;;;;;;29.82;13.15;;;;;;;10.92;94.83;150397.41;1772903;79;21057;-62
2022/04/09 05:15:22;;;;;;;33.18;15.28;;;;;;;11.03;94.04;150425.98;1761614;80;21900;-64
2022/04/09 05:17:52;;;;;;;23.50;9.75;;;;;;;11.17;93.27;150461.02;1772126;79;21229;-66
2022/04/09 05:20:19;;;;;;;30.65;12.20;;;;;;;11.29;92.34;150490.88;1778793;79;20939;-66
2022/04/09 05:22:48;;;;;;;19.90;7.50;;;;;;;11.42;91.55;150524.66;1775545;80;21070;-62
2022/04/09 05:25:20;;;;;;;15.98;5.80;;;;;;;11.55;90.56;150555.80;1770625;80;21090;-62
2022/04/09 05:27:49;;;;;;;19.42;6.53;;;;;;;11.66;89.44;150584.39;1777827;80;20970;-67
2022/04/09 05:30:27;;;;;;;19.10;6.53;;;;;;;11.75;88.70;150607.75;1778065;78;21054;-67
2022/04/09 05:32:56;;;;;;;21.85;7.67;;;;;;;11.88;87.90;150638.94;1779963;80;21049;-68
2022/04/09 05:35:24;;;;;;;19.48;7.80;;;;;;;12.00;87.04;150670.09;1775911;80;21330;-67
2022/04/09 05:37:54;;;;;;;26.07;9.70;;;;;;;12.16;86.58;150710.44;1771428;79;21011;-68
2022/04/09 05:40:23;;;;;;;22.17;10.03;;;;;;;12.37;85.78;150761.09;1780258;79;21473;-69
2022/04/09 05:42:52;;;;;;;17.73;7.60;;;;;;;12.56;84.74;150810.48;1784875;79;20970;-69
2022/04/09 05:45:21;;;;;;;22.10;11.20;;;;;;;12.80;83.89;150870.27;1784959;79;21086;-68
2022/04/09 05:47:49;;;;;;;20.12;8.20;;;;;;;13.02;82.83;150924.86;1782687;80;21025;-69
2022/04/09 05:50:18;;;;;;;26.48;14.13;;;;;;;13.28;81.80;150989.86;1778058;80;21890;-68
2022/04/09 05:52:49;;;;;;;30.32;13.08;;;;;;;13.48;79.99;151040.59;1774548;80;21089;-69
2022/04/09 05:55:17;;;;;;;17.65;7.00;;;;;;;13.65;79.07;151083.55;1779667;79;21421;-68
2022/04/09 05:57:45;;;;;;;19.12;9.13;;;;;;;13.79;77.53;151117.33;1780298;80;21101;-68
2022/04/09 06:00:16;;;;;;;17.32;8.03;;;;;;;13.84;76.74;151131.66;1780102;79;21540;-69
2022/04/09 06:02:46;;;;;;;16.12;6.62;;;;;;;13.92;75.96;151151.17;1784903;80;21014;-69
2022/04/09 06:05:16;;;;;;;8.65;4.42;;;;;;;14.00;75.19;151171.97;1774069;79;21486;-67
2022/04/09 06:07:44;;;;;;;12.68;5.95;;;;;;;14.20;74.54;151221.41;1784470;80;21037;-68
2022/04/09 06:10:14;;;;;;;19.48;5.50;;;;;;;14.52;73.80;151302.11;1779964;79;21532;-68
2022/04/09 06:12:43;;;;;;;15.70;5.33;;;;;;;14.89;72.31;151395.83;1784449;80;20989;-68
2022/04/09 06:15:13;;;;;;;11.78;4.60;;;;;;;15.30;70.76;151498.70;1774442;80;21081;-69
2022/04/09 06:17:43;;;;;;;12.73;5.42;;;;;;;15.65;69.18;151584.62;1775178;80;21963;-64
2022/04/09 06:20:11;;;;;;;11.88;4.75;;;;;;;15.90;67.64;151648.50;1779359;79;21058;-68
2022/04/09 06:22:40;;;;;;;11.03;4.50;;;;;;;16.03;66.67;151682.39;1777580;80;20986;-68
2022/04/09 06:25:08;;;;;;;11.90;4.03;;;;;;;16.12;65.66;151704.48;1768681;79;21148;-64
2022/04/09 06:27:40;;;;;;;9.98;4.08;;;;;;;16.12;64.63;151704.48;1775494;79;21030;-64
2022/04/09 06:30:10;;;;;;;9.15;4.60;;;;;;;16.07;64.15;151690.19;1778078;79;21717;-64
2022/04/09 06:32:38;;;;;;;10.40;3.80;;;;;;;15.95;63.67;151661.52;1746141;80;21059;-68
2022/04/09 06:35:09;;;;;;;12.03;3.55;;;;;;;15.79;63.65;151619.78;1775374;80;21161;-68
2022/04/09 06:37:38;;;;;;;10.78;5.00;;;;;;;15.63;63.83;151580.73;1780131;80;21031;-65
2022/04/09 06:40:09;;;;;;;10.20;4.10;;;;;;;15.56;63.98;151562.47;1778479;80;21061;-65
2022/04/09 06:42:37;;;;;;;8.75;3.83;;;;;;;15.47;63.98;151541.66;1780730;80;21227;-65
2022/04/09 06:45:18;;;;;;;12.58;4.92;;;;;;;15.39;64.01;151520.84;1777715;80;21004;-65
2022/04/09 06:47:47;;;;;;;16.17;4.20;;;;;;;15.33;63.96;151506.50;1720774;80;21756;-65
2022/04/09 06:50:14;;;;;;;10.70;5.03;;;;;;;15.26;63.94;151486.97;1776283;80;21043;-66
2022/04/09 06:52:50;;;;;;;10.00;4.05;;;;;;;15.19;64.12;151470.03;1773955;79;21741;-66
2022/04/09 06:55:17;;;;;;;9.43;3.95;;;;;;;15.15;64.25;151459.63;1776292;79;21480;-64
2022/04/09 06:57:45;;;;;;;11.65;5.10;;;;;;;15.14;64.30;151458.34;1777460;79;21049;-64
2022/04/09 07:00:15;;;;;;;12.55;4.00;;;;;;;15.13;64.27;151455.70;1773951;80;21062;-68
2022/04/09 07:02:43;;;;;;;7.85;3.60;;;;;;;15.14;64.43;151457.03;1776486;80;20938;-68
2022/04/09 07:05:11;;;;;;;14.98;4.53;;;;;;;15.18;64.40;151468.75;1774406;80;21066;-69
2022/04/09 07:07:38;;;;;;;7.75;4.10;;;;;;;15.23;64.12;151479.16;1774325;80;21277;-69
2022/04/09 07:10:09;;;;;;;15.65;4.33;;;;;;;15.22;63.83;151476.56;1776019;79;21086;-70
2022/04/09 07:12:37;;;;;;;10.68;3.35;;;;;;;15.20;63.80;151471.36;1778577;80;20975;-70
2022/04/09 07:15:06;;;;;;;11.28;3.92;;;;;;;15.13;63.94;151455.70;1773967;80;21014;-70
2022/04/09 07:17:34;;;;;;;8.78;3.30;;;;;;;15.11;64.03;151450.50;1774217;80;21011;-70
2022/04/09 07:20:05;;;;;;;9.55;3.75;;;;;;;15.12;64.22;151451.83;1777047;80;21231;-69
2022/04/09 07:22:34;;;;;;;9.30;3.70;;;;;;;15.14;64.17;151458.34;1776075;79;20999;-69
2022/04/09 07:25:05;;;;;;;6.12;3.50;;;;;;;15.18;64.03;151468.75;1774394;79;21116;-67
2022/04/09 07:27:44;;;;;;;20.52;4.03;;;;;;;15.19;64.15;151470.03;1775726;80;21504;-68
2022/04/09 07:30:14;;;;;;;9.30;3.58;;;;;;;15.17;64.06;151466.16;1784429;79;21444;-68
2022/04/09 07:32:43;;;;;;;16.27;6.90;;;;;;;15.17;64.28;151466.16;1780531;80;21041;-68
2022/04/09 07:35:11;;;;;;;11.70;4.50;;;;;;;15.22;64.33;151476.56;1767268;80;21098;-67
2022/04/09 07:37:44;;;;;;;12.65;4.65;;;;;;;15.23;64.26;151479.16;1776185;80;21508;-68
2022/04/09 07:40:13;;;;;;;13.53;4.25;;;;;;;15.21;64.27;151475.23;1775704;80;21993;-69
2022/04/09 07:42:43;;;;;;;11.90;4.35;;;;;;;15.17;64.41;151466.16;1777963;79;21011;-68
2022/04/09 07:45:10;;;;;;;19.07;4.15;;;;;;;15.20;64.71;151471.36;1764622;80;21012;-68
2022/04/09 07:47:39;;;;;;;9.38;4.08;;;;;;;15.24;64.60;151481.77;1784622;79;21058;-68
2022/04/09 07:50:10;;;;;;;11.90;4.55;;;;;;;15.26;64.59;151486.97;1780008;79;21074;-68
2022/04/09 07:52:47;;;;;;;9.98;4.17;;;;;;;15.24;64.56;151483.03;1774380;79;21038;-69
2022/04/09 07:55:16;;;;;;;13.70;4.28;;;;;;;15.20;64.61;151471.36;1775241;80;21102;-69
2022/04/09 07:57:45;;;;;;;8.83;4.15;;;;;;;15.16;64.87;151462.22;1778858;80;21170;-70
2022/04/09 08:00:16;;;;;;;9.10;4.20;;;;;;;15.10;65.11;151446.63;1780487;80;20980;-68
2022/04/09 08:02:43;;;;;;;8.25;4.15;;;;;;;15.06;65.21;151436.22;1775678;80;21042;-69
2022/04/09 08:05:11;;;;;;;11.75;4.60;;;;;;;15.01;65.53;151424.48;1768943;80;21049;-70
2022/04/09 08:07:40;;;;;;;11.55;4.65;;;;;;;15.00;65.75;151421.88;1776679;80;21141;-70
2022/04/09 08:10:08;;;;;;;16.37;5.30;;;;;;;14.99;65.82;151419.28;1772476;79;21241;-70
2022/04/09 08:12:38;;;;;;;9.88;4.25;;;;;;;14.97;66.09;151414.08;1778814;80;21465;-69
2022/04/09 08:15:08;;;;;;;16.40;5.10;;;;;;;14.97;66.18;151414.08;1774739;80;21089;-69
2022/04/09 08:17:38;;;;;;;10.10;4.12;;;;;;;14.94;66.31;151406.28;1777390;80;21405;-69
2022/04/09 08:20:08;;;;;;;14.87;4.62;;;;;;;14.95;66.44;151408.88;1779836;79;21265;-65
2022/04/09 08:22:36;;;;;;;13.03;4.40;;;;;;;14.96;66.43;151411.48;1777596;80;21245;-65
2022/04/09 08:25:05;;;;;;;13.13;5.47;;;;;;;14.95;66.38;151410.16;1777653;80;21069;-65
2022/04/09 08:27:33;;;;;;;13.22;4.30;;;;;;;14.90;66.46;151398.42;1777210;80;20976;-64
2022/04/09 08:30:01;;;;;;;13.50;4.58;;;;;;;14.86;66.58;151388.03;1775870;80;21065;-67
2022/04/09 08:32:29;;;;;;;10.53;3.98;;;;;;;14.84;66.63;151382.81;1796651;79;20987;-68
2022/04/09 08:34:56;;;;;;;7.70;3.95;;;;;;;14.82;66.82;151376.34;1799899;78;21336;-68
2022/04/09 08:37:23;;;;;;;16.35;4.55;;;;;;;14.84;66.85;151382.81;1797719;78;21522;-69
2022/04/09 08:39:51;;;;;;;11.80;4.33;;;;;;;14.88;66.85;151393.22;1794254;79;21086;-68
2022/04/09 08:42:19;;;;;;;12.78;4.28;;;;;;;14.97;66.68;151414.08;1799906;79;20997;-68
2022/04/09 08:44:46;;;;;;;12.13;4.25;;;;;;;15.00;66.41;151423.16;1796128;78;21090;-65
2022/04/09 08:47:14;;;;;;;10.23;4.20;;;;;;;15.04;66.29;151432.28;1798180;78;21251;-65
2022/04/09 08:49:47;;;;;;;12.18;4.08;;;;;;;15.05;66.08;151434.89;1801880;79;21031;-65
2022/04/09 08:52:15;;;;;;;11.03;4.65;;;;;;;15.04;66.00;151432.28;1795617;79;20991;-65
2022/04/09 08:54:44;;;;;;;9.50;4.08;;;;;;;15.03;65.91;151429.69;1792759;78;20982;-64
2022/04/09 08:57:11;;;;;;;10.43;4.33;;;;;;;15.03;65.96;151429.69;1789162;79;21307;-64
2022/04/09 08:59:39;;;;;;;19.10;7.35;;;;;;;15.07;65.80;151440.09;1770390;79;21334;-64
2022/04/09 09:02:06;;;;;;;21.45;5.95;;;;;;;15.08;66.01;151442.69;1793841;79;21049;-64
2022/04/09 09:04:34;;;;;;;13.50;4.65;;;;;;;15.08;65.98;151442.69;1791342;79;21061;-64
2022/04/09 09:07:22;;;;;;;18.10;5.90;;;;;;;15.03;65.87;151431.02;1795078;79;21543;-64
2022/04/09 09:09:51;;;;;;;16.35;6.45;;;;;;;14.94;66.28;151407.56;1800662;79;21241;-64
2022/04/09 09:12:29;;;;;;;35.03;6.97;;;;;;;14.87;66.65;151390.63;1791720;79;21314;-63
2022/04/09 09:14:57;;;;;;;14.15;5.10;;;;;;;14.86;66.77;151388.03;1793545;78;21257;-65
2022/04/09 09:17:29;;;;;;;14.23;4.90;;;;;;;14.84;66.80;151382.81;1794391;79;21013;-66
2022/04/09 09:19:56;;;;;;;11.73;4.40;;;;;;;14.84;66.85;151382.81;1795402;79;21059;-65
2022/04/09 09:22:38;;;;;;;14.58;5.65;;;;;;;14.82;66.85;151377.62;1801692;78;21007;-65
2022/04/09 09:25:11;;;;;;;10.50;4.25;;;;;;;14.82;66.98;151377.62;1787462;79;21336;-64
2022/04/09 09:27:44;;;;;;;15.80;4.90;;;;;;;14.84;66.97;151382.81;1796791;79;21119;-64
2022/04/09 09:30:12;;;;;;;12.37;4.92;;;;;;;14.85;66.91;151385.42;1791245;79;21102;-65
2022/04/09 09:32:41;;;;;;;11.78;4.50;;;;;;;14.84;66.74;151381.55;1780016;79;20997;-65
2022/04/09 09:35:09;;;;;;;17.30;5.22;;;;;;;14.84;66.76;151382.81;1773910;79;21041;-65
2022/04/09 09:37:38;;;;;;;14.63;4.80;;;;;;;14.83;66.58;151380.22;1774860;79;22246;-68
2022/04/09 09:40:06;;;;;;;13.58;5.08;;;;;;;14.79;66.54;151369.81;1770477;80;21203;-69
2022/04/09 09:42:35;;;;;;;13.22;4.72;;;;;;;14.75;66.79;151359.41;1769437;79;21015;-69
2022/04/09 09:45:05;;;;;;;11.88;4.62;;;;;;;14.71;66.87;151350.28;1773976;79;21053;-69
2022/04/09 09:47:32;;;;;;;12.78;4.55;;;;;;;14.65;66.91;151333.31;1767379;79;21032;-70
2022/04/09 09:49:59;;;;;;;12.23;5.10;;;;;;;14.56;67.34;151311.19;1775807;79;21204;-69
2022/04/09 09:52:29;;;;;;;13.95;4.53;;;;;;;14.54;67.52;151305.97;1784178;80;21019;-69
2022/04/09 09:55:04;;;;;;;19.45;5.20;;;;;;;14.52;67.76;151302.11;1772126;79;21067;-64
2022/04/09 09:57:33;;;;;;;12.30;4.85;;;;;;;14.53;67.78;151303.38;1760552;79;21422;-65
2022/04/09 10:00:05;;;;;;;13.55;4.20;;;;;;;14.53;67.96;151304.70;1770517;79;21108;-66
2022/04/09 10:02:35;;;;;;;15.13;5.65;;;;;;;14.54;67.86;151307.30;1774291;79;21154;-65
2022/04/09 10:05:02;;;;;;;9.53;3.98;;;;;;;14.54;67.71;151307.30;1775937;79;20994;-65
2022/04/09 10:07:29;;;;;;;13.15;4.35;;;;;;;14.52;67.58;151302.11;1780450;79;20979;-67
2022/04/09 10:10:05;;;;;;;10.13;3.98;;;;;;;14.46;67.63;151286.45;1774806;78;21077;-70
2022/04/09 10:12:42;;;;;;;13.38;4.17;;;;;;;14.40;67.64;151270.84;1744605;80;21400;-68
2022/04/09 10:15:10;;;;;;;13.38;3.92;;;;;;;14.33;67.73;151255.25;1781844;80;20974;-67
2022/04/09 10:17:38;;;;;;;10.65;3.47;;;;;;;14.25;67.85;151234.41;1782581;80;21061;-65
2022/04/09 10:20:08;;;;;;;14.13;4.40;;;;;;;14.22;67.79;151226.59;1782959;80;21053;-66
2022/04/09 10:22:45;;;;;;;7.62;3.40;;;;;;;14.23;67.84;151227.92;1783266;80;20947;-65
2022/04/09 10:25:17;;;;;;;14.55;3.55;;;;;;;14.24;67.67;151231.81;1783348;80;21108;-65
2022/04/09 10:27:52;;;;;;;15.65;3.87;;;;;;;14.26;67.50;151235.72;1782806;80;21041;-64
2022/04/09 10:30:24;;;;;;;12.05;3.12;;;;;;;14.29;67.11;151243.53;1783138;80;21479;-65
2022/04/09 10:32:59;;;;;;;10.30;3.27;;;;;;;14.33;66.67;151253.92;1769618;79;21052;-65
2022/04/09 10:35:40;;;;;;;10.32;3.20;;;;;;;14.36;66.24;151260.45;1793665;79;21020;-64
2022/04/09 10:38:13;;;;;;;10.00;2.87;;;;;;;14.37;66.06;151264.38;1774170;79;21017;-65
2022/04/09 10:40:55;;;;;;;8.13;3.58;;;;;;;14.40;66.05;151270.84;1786941;79;21267;-64
2022/04/09 10:43:30;;;;;;;13.45;3.20;;;;;;;14.40;66.01;151270.84;1785454;79;21034;-65
2022/04/09 10:46:11;;;;;;;9.08;3.20;;;;;;;14.41;66.07;151273.45;1788525;79;21008;-64
2022/04/09 10:48:42;;;;;;;11.48;3.77;;;;;;;14.39;65.95;151269.58;1789423;79;21043;-64
2022/04/09 10:51:13;;;;;;;13.22;3.30;;;;;;;14.36;65.90;151260.45;1787963;79;21016;-65
2022/04/09 10:53:51;;;;;;;12.25;3.15;;;;;;;14.33;65.81;151255.25;1784992;80;21209;-65
2022/04/09 10:56:26;;;;;;;14.33;3.85;;;;;;;14.29;65.82;151244.84;1787029;79;21075;-66
2022/04/09 10:59:17;;;;;;;14.60;3.45;;;;;;;14.22;65.89;151226.59;1801903;78;21000;-70
2022/04/09 11:01:50;;;;;;;9.53;3.00;;;;;;;14.16;65.99;151211.00;1801222;79;20945;-67
2022/04/09 11:04:35;;;;;;;11.80;3.20;;;;;;;14.11;66.33;151198.00;1802032;79;20957;-65
2022/04/09 11:07:17;;;;;;;10.00;3.12;;;;;;;14.04;66.33;151182.41;1801413;78;20969;-67
2022/04/09 11:09:57;;;;;;;11.30;3.70;;;;;;;14.00;66.54;151170.69;1802052;79;20999;-64
2022/04/09 11:12:42;;;;;;;10.85;3.45;;;;;;;13.99;66.89;151168.09;1799919;79;21462;-69
2022/04/09 11:15:16;;;;;;;11.38;3.55;;;;;;;13.98;67.06;151166.77;1801568;79;21033;-69
2022/04/09 11:17:47;;;;;;;11.10;3.58;;;;;;;13.96;67.30;151160.28;1801684;79;21027;-69
2022/04/09 11:20:19;;;;;;;13.90;4.22;;;;;;;13.89;67.38;151143.38;1801585;79;22016;-69
2022/04/09 11:22:56;;;;;;;13.20;3.98;;;;;;;13.80;67.76;151119.92;1801886;79;21545;-64
2022/04/09 11:25:25;;;;;;;12.60;4.35;;;;;;;13.72;68.26;151101.73;1802234;79;21032;-65
2022/04/09 11:27:55;;;;;;;14.73;4.00;;;;;;;13.67;68.75;151087.41;1801730;79;21016;-64
2022/04/09 11:30:22;;;;;;;14.93;4.40;;;;;;;13.64;69.08;151080.94;1795871;79;21017;-64